sensor_id;sensor_type;location;lat;lon;timestamp;P1;durP1;ratioP1;P2;durP2;ratioP2
26718;SDS011;14326;50.794;6.060;2023-08-08T00:00:33;6.38;;;3.00;;
26718;SDS011;14326;50.794;6.060;2023-08-08T00:03:01;11.55;;;3.10;;
26718;SDS011;14326;50.794;6.060;2023-08-08T00:05:28;11.25;;;3.33;;
26718;SDS011;14326;50.794;6.060;2023-08-08T00:07:54;12.52;;;3.33;;
26718;SDS011;14326;50.794;6.060;2023-08-08T00:10:20;11.50;;;3.55;;
26718;SDS011;14326;50.794;6.060;2023-08-08T00:12:47;8.77;;;2.90;;
26718;SDS011;14326;50.794;6.060;2023-08-08T00:15:13;13.15;;;3.20;;
26718;SDS011;14326;50.794;6.060;2023-08-08T00:17:39;11.43;;;3.30;;
26718;SDS011;14326;50.794;6.060;2023-08-08T00:20:08;10.15;;;3.42;;
26718;SDS011;14326;50.794;6.060;2023-08-08T00:22:35;9.50;;;3.22;;
26718;SDS011;14326;50.794;6.060;2023-08-08T00:25:01;10.07;;;3.10;;
26718;SDS011;14326;50.794;6.060;2023-08-08T00:27:27;11.57;;;3.38;;
26718;SDS011;14326;50.794;6.060;2023-08-08T00:29:54;8.80;;;2.85;;
26718;SDS011;14326;50.794;6.060;2023-08-08T00:32:20;11.38;;;3.28;;
26718;SDS011;14326;50.794;6.060;2023-08-08T00:34:47;9.07;;;2.92;;
26718;SDS011;14326;50.794;6.060;2023-08-08T00:37:14;8.68;;;2.85;;
26718;SDS011;14326;50.794;6.060;2023-08-08T00:39:41;8.80;;;2.97;;
26718;SDS011;14326;50.794;6.060;2023-08-08T00:42:11;12.18;;;3.30;;
26718;SDS011;14326;50.794;6.060;2023-08-08T00:44:37;15.13;;;3.60;;
26718;SDS011;14326;50.794;6.060;2023-08-08T00:47:03;12.20;;;3.28;;
26718;SDS011;14326;50.794;6.060;2023-08-08T00:49:30;10.40;;;3.20;;
26718;SDS011;14326;50.794;6.060;2023-08-08T00:51:56;9.82;;;3.00;;
26718;SDS011;14326;50.794;6.060;2023-08-08T00:54:24;13.43;;;3.17;;
26718;SDS011;14326;50.794;6.060;2023-08-08T00:56:51;14.70;;;4.32;;
26718;SDS011;14326;50.794;6.060;2023-08-08T00:59:17;15.82;;;3.40;;
26718;SDS011;14326;50.794;6.060;2023-08-08T01:01:44;12.70;;;3.95;;
26718;SDS011;14326;50.794;6.060;2023-08-08T01:04:11;12.52;;;3.20;;
26718;SDS011;14326;50.794;6.060;2023-08-08T01:06:38;12.15;;;3.15;;
26718;SDS011;14326;50.794;6.060;2023-08-08T01:09:08;13.13;;;3.28;;
26718;SDS011;14326;50.794;6.060;2023-08-08T01:11:36;12.93;;;3.70;;
26718;SDS011;14326;50.794;6.060;2023-08-08T01:14:03;13.05;;;3.05;;
26718;SDS011;14326;50.794;6.060;2023-08-08T01:16:31;9.90;;;3.45;;
26718;SDS011;14326;50.794;6.060;2023-08-08T01:18:58;10.68;;;3.30;;
26718;SDS011;14326;50.794;6.060;2023-08-08T01:21:24;12.55;;;3.47;;
26718;SDS011;14326;50.794;6.060;2023-08-08T01:23:52;10.20;;;3.03;;
26718;SDS011;14326;50.794;6.060;2023-08-08T01:26:20;11.27;;;2.97;;
26718;SDS011;14326;50.794;6.060;2023-08-08T01:28:47;9.65;;;2.92;;
26718;SDS011;14326;50.794;6.060;2023-08-08T01:31:14;13.00;;;2.80;;
26718;SDS011;14326;50.794;6.060;2023-08-08T01:33:40;12.10;;;3.13;;
26718;SDS011;14326;50.794;6.060;2023-08-08T01:36:07;9.68;;;3.03;;
26718;SDS011;14326;50.794;6.060;2023-08-08T01:38:39;11.27;;;3.15;;
26718;SDS011;14326;50.794;6.060;2023-08-08T01:41:07;12.35;;;3.50;;
26718;SDS011;14326;50.794;6.060;2023-08-08T01:43:35;12.18;;;3.47;;
26718;SDS011;14326;50.794;6.060;2023-08-08T01:46:02;13.23;;;2.90;;
26718;SDS011;14326;50.794;6.060;2023-08-08T01:48:30;8.80;;;2.85;;
26718;SDS011;14326;50.794;6.060;2023-08-08T01:50:56;11.50;;;3.10;;
26718;SDS011;14326;50.794;6.060;2023-08-08T01:53:22;10.88;;;2.67;;
26718;SDS011;14326;50.794;6.060;2023-08-08T01:55:49;11.82;;;2.45;;
26718;SDS011;14326;50.794;6.060;2023-08-08T01:58:15;11.65;;;2.90;;
26718;SDS011;14326;50.794;6.060;2023-08-08T02:00:43;10.45;;;3.40;;
26718;SDS011;14326;50.794;6.060;2023-08-08T02:03:10;12.73;;;2.72;;
26718;SDS011;14326;50.794;6.060;2023-08-08T02:05:36;12.20;;;3.35;;
26718;SDS011;14326;50.794;6.060;2023-08-08T02:08:03;9.73;;;2.80;;
26718;SDS011;14326;50.794;6.060;2023-08-08T02:10:30;10.65;;;2.88;;
26718;SDS011;14326;50.794;6.060;2023-08-08T02:12:56;7.03;;;2.45;;
26718;SDS011;14326;50.794;6.060;2023-08-08T02:15:22;14.55;;;3.35;;
26718;SDS011;14326;50.794;6.060;2023-08-08T02:17:51;11.60;;;2.80;;
26718;SDS011;14326;50.794;6.060;2023-08-08T02:20:17;12.18;;;2.97;;
26718;SDS011;14326;50.794;6.060;2023-08-08T02:22:44;13.40;;;2.78;;
26718;SDS011;14326;50.794;6.060;2023-08-08T02:25:10;15.57;;;3.33;;
26718;SDS011;14326;50.794;6.060;2023-08-08T02:27:37;11.30;;;3.17;;
26718;SDS011;14326;50.794;6.060;2023-08-08T02:30:03;8.73;;;2.90;;
26718;SDS011;14326;50.794;6.060;2023-08-08T02:32:30;12.23;;;3.33;;
26718;SDS011;14326;50.794;6.060;2023-08-08T02:34:58;9.18;;;3.00;;
26718;SDS011;14326;50.794;6.060;2023-08-08T02:37:24;12.82;;;3.33;;
26718;SDS011;14326;50.794;6.060;2023-08-08T02:39:50;11.45;;;3.13;;
26718;SDS011;14326;50.794;6.060;2023-08-08T02:42:17;10.15;;;2.88;;
26718;SDS011;14326;50.794;6.060;2023-08-08T02:44:43;14.55;;;2.88;;
26718;SDS011;14326;50.794;6.060;2023-08-08T02:47:10;13.75;;;3.17;;
26718;SDS011;14326;50.794;6.060;2023-08-08T02:49:36;16.60;;;3.47;;
26718;SDS011;14326;50.794;6.060;2023-08-08T02:52:04;14.48;;;3.03;;
26718;SDS011;14326;50.794;6.060;2023-08-08T02:54:30;17.15;;;3.97;;
26718;SDS011;14326;50.794;6.060;2023-08-08T02:56:57;10.10;;;2.80;;
26718;SDS011;14326;50.794;6.060;2023-08-08T02:59:23;14.15;;;3.10;;
26718;SDS011;14326;50.794;6.060;2023-08-08T03:01:49;12.73;;;2.90;;
26718;SDS011;14326;50.794;6.060;2023-08-08T03:04:16;17.10;;;3.38;;
26718;SDS011;14326;50.794;6.060;2023-08-08T03:06:42;16.40;;;3.83;;
26718;SDS011;14326;50.794;6.060;2023-08-08T03:09:10;11.95;;;3.38;;
26718;SDS011;14326;50.794;6.060;2023-08-08T03:11:37;17.73;;;3.85;;
26718;SDS011;14326;50.794;6.060;2023-08-08T03:14:06;10.97;;;3.07;;
26718;SDS011;14326;50.794;6.060;2023-08-08T03:16:32;17.40;;;4.20;;
26718;SDS011;14326;50.794;6.060;2023-08-08T03:18:59;14.40;;;3.30;;
26718;SDS011;14326;50.794;6.060;2023-08-08T03:21:25;15.00;;;3.70;;
26718;SDS011;14326;50.794;6.060;2023-08-08T03:23:51;18.02;;;3.95;;
26718;SDS011;14326;50.794;6.060;2023-08-08T03:26:19;15.32;;;3.75;;
26718;SDS011;14326;50.794;6.060;2023-08-08T03:28:46;16.25;;;3.80;;
26718;SDS011;14326;50.794;6.060;2023-08-08T03:31:15;18.98;;;3.67;;
26718;SDS011;14326;50.794;6.060;2023-08-08T03:33:42;11.82;;;3.38;;
26718;SDS011;14326;50.794;6.060;2023-08-08T03:36:08;13.73;;;4.30;;
26718;SDS011;14326;50.794;6.060;2023-08-08T03:38:35;17.45;;;3.50;;
26718;SDS011;14326;50.794;6.060;2023-08-08T03:41:03;11.52;;;3.63;;
26718;SDS011;14326;50.794;6.060;2023-08-08T03:43:30;14.73;;;3.55;;
26718;SDS011;14326;50.794;6.060;2023-08-08T03:45:57;17.42;;;4.20;;
26718;SDS011;14326;50.794;6.060;2023-08-08T03:48:23;16.23;;;4.35;;
26718;SDS011;14326;50.794;6.060;2023-08-08T03:50:50;17.05;;;4.07;;
26718;SDS011;14326;50.794;6.060;2023-08-08T03:53:16;18.50;;;4.35;;
26718;SDS011;14326;50.794;6.060;2023-08-08T03:55:43;14.55;;;4.03;;
26718;SDS011;14326;50.794;6.060;2023-08-08T03:58:09;15.93;;;3.80;;
26718;SDS011;14326;50.794;6.060;2023-08-08T04:00:37;16.40;;;4.15;;
26718;SDS011;14326;50.794;6.060;2023-08-08T04:03:04;18.67;;;4.00;;
26718;SDS011;14326;50.794;6.060;2023-08-08T04:05:30;23.05;;;4.70;;
26718;SDS011;14326;50.794;6.060;2023-08-08T04:07:57;18.05;;;4.03;;
26718;SDS011;14326;50.794;6.060;2023-08-08T04:10:23;18.55;;;4.50;;
26718;SDS011;14326;50.794;6.060;2023-08-08T04:12:49;14.90;;;3.90;;
26718;SDS011;14326;50.794;6.060;2023-08-08T04:15:16;19.98;;;4.68;;
26718;SDS011;14326;50.794;6.060;2023-08-08T04:17:44;14.70;;;4.10;;
26718;SDS011;14326;50.794;6.060;2023-08-08T04:20:10;14.35;;;3.67;;
26718;SDS011;14326;50.794;6.060;2023-08-08T04:22:37;20.30;;;4.50;;
26718;SDS011;14326;50.794;6.060;2023-08-08T04:25:04;24.13;;;4.93;;
26718;SDS011;14326;50.794;6.060;2023-08-08T04:27:31;15.52;;;4.15;;
26718;SDS011;14326;50.794;6.060;2023-08-08T04:29:57;23.20;;;5.03;;
26718;SDS011;14326;50.794;6.060;2023-08-08T04:32:23;14.95;;;3.80;;
26718;SDS011;14326;50.794;6.060;2023-08-08T04:34:51;13.27;;;3.90;;
26718;SDS011;14326;50.794;6.060;2023-08-08T04:37:17;17.27;;;4.30;;
26718;SDS011;14326;50.794;6.060;2023-08-08T04:39:44;18.20;;;4.65;;
26718;SDS011;14326;50.794;6.060;2023-08-08T04:42:10;20.15;;;4.50;;
26718;SDS011;14326;50.794;6.060;2023-08-08T04:44:37;14.18;;;3.97;;
26718;SDS011;14326;50.794;6.060;2023-08-08T04:47:04;12.10;;;4.05;;
26718;SDS011;14326;50.794;6.060;2023-08-08T04:49:30;16.00;;;4.60;;
26718;SDS011;14326;50.794;6.060;2023-08-08T04:51:58;20.83;;;5.43;;
26718;SDS011;14326;50.794;6.060;2023-08-08T04:54:24;20.90;;;4.70;;
26718;SDS011;14326;50.794;6.060;2023-08-08T04:56:51;14.68;;;4.30;;
26718;SDS011;14326;50.794;6.060;2023-08-08T04:59:17;13.95;;;4.00;;
26718;SDS011;14326;50.794;6.060;2023-08-08T05:01:44;16.73;;;3.97;;
26718;SDS011;14326;50.794;6.060;2023-08-08T05:04:10;14.55;;;4.10;;
26718;SDS011;14326;50.794;6.060;2023-08-08T05:06:36;16.70;;;3.97;;
26718;SDS011;14326;50.794;6.060;2023-08-08T05:09:04;18.58;;;4.25;;
26718;SDS011;14326;50.794;6.060;2023-08-08T05:11:34;18.25;;;4.38;;
26718;SDS011;14326;50.794;6.060;2023-08-08T05:14:00;18.73;;;4.18;;
26718;SDS011;14326;50.794;6.060;2023-08-08T05:16:27;18.42;;;4.40;;
26718;SDS011;14326;50.794;6.060;2023-08-08T05:18:53;17.92;;;4.00;;
26718;SDS011;14326;50.794;6.060;2023-08-08T05:21:21;17.50;;;4.15;;
26718;SDS011;14326;50.794;6.060;2023-08-08T05:23:47;17.95;;;4.28;;
26718;SDS011;14326;50.794;6.060;2023-08-08T05:26:15;16.73;;;4.05;;
26718;SDS011;14326;50.794;6.060;2023-08-08T05:28:41;17.80;;;3.97;;
26718;SDS011;14326;50.794;6.060;2023-08-08T05:31:08;18.88;;;3.95;;
26718;SDS011;14326;50.794;6.060;2023-08-08T05:33:35;16.17;;;3.63;;
26718;SDS011;14326;50.794;6.060;2023-08-08T05:36:01;14.57;;;3.53;;
26718;SDS011;14326;50.794;6.060;2023-08-08T05:38:28;17.80;;;3.50;;
26718;SDS011;14326;50.794;6.060;2023-08-08T05:40:54;13.52;;;3.30;;
26718;SDS011;14326;50.794;6.060;2023-08-08T05:43:22;18.98;;;3.67;;
26718;SDS011;14326;50.794;6.060;2023-08-08T05:45:48;16.77;;;3.72;;
26718;SDS011;14326;50.794;6.060;2023-08-08T05:48:15;14.57;;;4.25;;
26718;SDS011;14326;50.794;6.060;2023-08-08T05:50:41;17.58;;;3.60;;
26718;SDS011;14326;50.794;6.060;2023-08-08T05:53:08;17.95;;;3.92;;
26718;SDS011;14326;50.794;6.060;2023-08-08T05:55:34;13.50;;;3.72;;
26718;SDS011;14326;50.794;6.060;2023-08-08T05:58:00;22.02;;;4.57;;
26718;SDS011;14326;50.794;6.060;2023-08-08T06:00:28;19.17;;;3.78;;
26718;SDS011;14326;50.794;6.060;2023-08-08T06:02:55;15.30;;;4.25;;
26718;SDS011;14326;50.794;6.060;2023-08-08T06:05:21;17.90;;;3.92;;
26718;SDS011;14326;50.794;6.060;2023-08-08T06:07:48;17.80;;;4.15;;
26718;SDS011;14326;50.794;6.060;2023-08-08T06:10:14;22.45;;;4.75;;
26718;SDS011;14326;50.794;6.060;2023-08-08T06:12:42;13.30;;;3.88;;
26718;SDS011;14326;50.794;6.060;2023-08-08T06:15:08;15.35;;;3.85;;
26718;SDS011;14326;50.794;6.060;2023-08-08T06:17:36;15.27;;;3.92;;
26718;SDS011;14326;50.794;6.060;2023-08-08T06:20:03;20.58;;;5.00;;
26718;SDS011;14326;50.794;6.060;2023-08-08T06:22:31;17.70;;;4.88;;
26718;SDS011;14326;50.794;6.060;2023-08-08T06:24:58;21.77;;;4.85;;
26718;SDS011;14326;50.794;6.060;2023-08-08T06:27:24;18.50;;;5.47;;
26718;SDS011;14326;50.794;6.060;2023-08-08T06:29:51;22.17;;;5.20;;
26718;SDS011;14326;50.794;6.060;2023-08-08T06:32:17;19.17;;;4.85;;
26718;SDS011;14326;50.794;6.060;2023-08-08T06:34:45;24.17;;;4.95;;
26718;SDS011;14326;50.794;6.060;2023-08-08T06:37:12;22.35;;;5.70;;
26718;SDS011;14326;50.794;6.060;2023-08-08T06:39:38;16.30;;;4.85;;
26718;SDS011;14326;50.794;6.060;2023-08-08T06:42:05;15.68;;;4.78;;
26718;SDS011;14326;50.794;6.060;2023-08-08T06:44:32;16.38;;;4.50;;
26718;SDS011;14326;50.794;6.060;2023-08-08T06:46:58;22.17;;;5.53;;
26718;SDS011;14326;50.794;6.060;2023-08-08T06:49:25;21.83;;;5.38;;
26718;SDS011;14326;50.794;6.060;2023-08-08T06:51:53;19.63;;;5.65;;
26718;SDS011;14326;50.794;6.060;2023-08-08T06:54:19;18.45;;;5.47;;
26718;SDS011;14326;50.794;6.060;2023-08-08T06:56:46;18.75;;;6.05;;
26718;SDS011;14326;50.794;6.060;2023-08-08T06:59:12;18.17;;;5.28;;
26718;SDS011;14326;50.794;6.060;2023-08-08T07:01:39;19.50;;;5.78;;
26718;SDS011;14326;50.794;6.060;2023-08-08T07:04:05;20.13;;;6.30;;
26718;SDS011;14326;50.794;6.060;2023-08-08T07:06:32;24.15;;;6.13;;
26718;SDS011;14326;50.794;6.060;2023-08-08T07:09:00;20.15;;;5.40;;
26718;SDS011;14326;50.794;6.060;2023-08-08T07:11:26;17.55;;;5.20;;
26718;SDS011;14326;50.794;6.060;2023-08-08T07:13:53;19.70;;;5.30;;
26718;SDS011;14326;50.794;6.060;2023-08-08T07:16:19;19.20;;;5.57;;
26718;SDS011;14326;50.794;6.060;2023-08-08T07:18:46;16.25;;;6.03;;
26718;SDS011;14326;50.794;6.060;2023-08-08T07:21:12;17.70;;;5.57;;
26718;SDS011;14326;50.794;6.060;2023-08-08T07:23:38;22.92;;;5.55;;
26718;SDS011;14326;50.794;6.060;2023-08-08T07:26:06;25.52;;;6.35;;
26718;SDS011;14326;50.794;6.060;2023-08-08T07:28:33;16.73;;;5.32;;
26718;SDS011;14326;50.794;6.060;2023-08-08T07:30:59;19.50;;;4.97;;
26718;SDS011;14326;50.794;6.060;2023-08-08T07:33:26;18.35;;;5.32;;
26718;SDS011;14326;50.794;6.060;2023-08-08T07:35:52;19.40;;;4.80;;
26718;SDS011;14326;50.794;6.060;2023-08-08T07:38:18;19.77;;;5.40;;
26718;SDS011;14326;50.794;6.060;2023-08-08T07:40:45;16.92;;;5.03;;
26718;SDS011;14326;50.794;6.060;2023-08-08T07:43:14;18.38;;;4.88;;
26718;SDS011;14326;50.794;6.060;2023-08-08T07:45:41;17.95;;;4.53;;
26718;SDS011;14326;50.794;6.060;2023-08-08T07:48:07;18.17;;;4.40;;
26718;SDS011;14326;50.794;6.060;2023-08-08T07:50:34;14.30;;;4.95;;
26718;SDS011;14326;50.794;6.060;2023-08-08T07:53:00;22.80;;;4.47;;
26718;SDS011;14326;50.794;6.060;2023-08-08T07:55:27;14.27;;;4.40;;
26718;SDS011;14326;50.794;6.060;2023-08-08T07:57:53;21.77;;;4.30;;
26718;SDS011;14326;50.794;6.060;2023-08-08T08:00:21;17.73;;;4.30;;
26718;SDS011;14326;50.794;6.060;2023-08-08T08:02:48;19.90;;;5.00;;
26718;SDS011;14326;50.794;6.060;2023-08-08T08:05:14;17.50;;;4.00;;
26718;SDS011;14326;50.794;6.060;2023-08-08T08:07:41;17.55;;;3.97;;
26718;SDS011;14326;50.794;6.060;2023-08-08T08:10:08;15.50;;;3.88;;
26718;SDS011;14326;50.794;6.060;2023-08-08T08:12:35;20.00;;;4.15;;
26718;SDS011;14326;50.794;6.060;2023-08-08T08:15:02;16.60;;;4.65;;
26718;SDS011;14326;50.794;6.060;2023-08-08T08:17:30;15.35;;;3.65;;
26718;SDS011;14326;50.794;6.060;2023-08-08T08:19:57;19.50;;;4.78;;
26718;SDS011;14326;50.794;6.060;2023-08-08T08:22:23;13.52;;;3.40;;
26718;SDS011;14326;50.794;6.060;2023-08-08T08:24:50;18.88;;;4.38;;
26718;SDS011;14326;50.794;6.060;2023-08-08T08:27:16;18.10;;;3.78;;
26718;SDS011;14326;50.794;6.060;2023-08-08T08:29:43;14.25;;;4.07;;
26718;SDS011;14326;50.794;6.060;2023-08-08T08:32:10;14.90;;;3.70;;
26718;SDS011;14326;50.794;6.060;2023-08-08T08:34:37;11.25;;;2.95;;
26718;SDS011;14326;50.794;6.060;2023-08-08T08:37:04;11.23;;;3.15;;
26718;SDS011;14326;50.794;6.060;2023-08-08T08:39:30;12.73;;;3.42;;
26718;SDS011;14326;50.794;6.060;2023-08-08T08:41:58;11.88;;;3.45;;
26718;SDS011;14326;50.794;6.060;2023-08-08T08:44:26;14.00;;;3.47;;
26718;SDS011;14326;50.794;6.060;2023-08-08T08:46:53;12.02;;;3.40;;
26718;SDS011;14326;50.794;6.060;2023-08-08T08:49:22;19.02;;;4.30;;
26718;SDS011;14326;50.794;6.060;2023-08-08T08:51:50;14.05;;;3.33;;
26718;SDS011;14326;50.794;6.060;2023-08-08T08:54:16;15.70;;;3.13;;
26718;SDS011;14326;50.794;6.060;2023-08-08T08:56:44;16.63;;;3.55;;
26718;SDS011;14326;50.794;6.060;2023-08-08T08:59:10;16.48;;;2.83;;
26718;SDS011;14326;50.794;6.060;2023-08-08T09:01:37;10.13;;;2.75;;
26718;SDS011;14326;50.794;6.060;2023-08-08T09:04:04;11.65;;;2.75;;
26718;SDS011;14326;50.794;6.060;2023-08-08T09:06:31;13.23;;;2.53;;
26718;SDS011;14326;50.794;6.060;2023-08-08T09:08:59;10.75;;;2.40;;
26718;SDS011;14326;50.794;6.060;2023-08-08T09:11:26;12.07;;;2.90;;
26718;SDS011;14326;50.794;6.060;2023-08-08T09:13:52;12.02;;;2.53;;
26718;SDS011;14326;50.794;6.060;2023-08-08T09:16:19;16.73;;;2.78;;
26718;SDS011;14326;50.794;6.060;2023-08-08T09:18:45;15.98;;;3.03;;
26718;SDS011;14326;50.794;6.060;2023-08-08T09:21:12;14.80;;;3.08;;
26718;SDS011;14326;50.794;6.060;2023-08-08T09:23:40;13.30;;;2.97;;
26718;SDS011;14326;50.794;6.060;2023-08-08T09:26:12;10.77;;;2.72;;
26718;SDS011;14326;50.794;6.060;2023-08-08T09:28:39;14.98;;;2.95;;
26718;SDS011;14326;50.794;6.060;2023-08-08T09:31:05;17.08;;;3.88;;
26718;SDS011;14326;50.794;6.060;2023-08-08T09:33:31;13.00;;;2.92;;
26718;SDS011;14326;50.794;6.060;2023-08-08T09:35:58;12.10;;;2.88;;
26718;SDS011;14326;50.794;6.060;2023-08-08T09:38:24;15.98;;;3.15;;
26718;SDS011;14326;50.794;6.060;2023-08-08T09:40:51;14.43;;;2.80;;
26718;SDS011;14326;50.794;6.060;2023-08-08T09:43:19;13.43;;;2.60;;
26718;SDS011;14326;50.794;6.060;2023-08-08T09:45:46;11.10;;;2.40;;
26718;SDS011;14326;50.794;6.060;2023-08-08T09:48:13;11.32;;;2.30;;
26718;SDS011;14326;50.794;6.060;2023-08-08T09:50:40;15.57;;;2.92;;
26718;SDS011;14326;50.794;6.060;2023-08-08T09:53:07;17.20;;;2.80;;
26718;SDS011;14326;50.794;6.060;2023-08-08T09:55:34;12.80;;;2.70;;
26718;SDS011;14326;50.794;6.060;2023-08-08T09:58:01;10.57;;;2.65;;
26718;SDS011;14326;50.794;6.060;2023-08-08T10:00:30;10.02;;;2.40;;
26718;SDS011;14326;50.794;6.060;2023-08-08T10:02:59;13.43;;;2.47;;
26718;SDS011;14326;50.794;6.060;2023-08-08T10:05:27;13.05;;;2.67;;
26718;SDS011;14326;50.794;6.060;2023-08-08T10:07:53;8.63;;;2.30;;
26718;SDS011;14326;50.794;6.060;2023-08-08T10:10:20;12.18;;;2.50;;
26718;SDS011;14326;50.794;6.060;2023-08-08T10:12:46;8.55;;;2.22;;
26718;SDS011;14326;50.794;6.060;2023-08-08T10:15:12;9.93;;;2.10;;
26718;SDS011;14326;50.794;6.060;2023-08-08T10:17:41;19.38;;;2.90;;
26718;SDS011;14326;50.794;6.060;2023-08-08T10:20:08;14.82;;;3.00;;
26718;SDS011;14326;50.794;6.060;2023-08-08T10:22:36;10.55;;;2.30;;
26718;SDS011;14326;50.794;6.060;2023-08-08T10:25:04;10.88;;;2.30;;
26718;SDS011;14326;50.794;6.060;2023-08-08T10:27:31;13.02;;;2.40;;
26718;SDS011;14326;50.794;6.060;2023-08-08T10:30:01;13.77;;;2.38;;
26718;SDS011;14326;50.794;6.060;2023-08-08T10:32:27;9.38;;;2.15;;
26718;SDS011;14326;50.794;6.060;2023-08-08T10:34:55;11.65;;;2.78;;
26718;SDS011;14326;50.794;6.060;2023-08-08T10:37:26;11.93;;;2.47;;
26718;SDS011;14326;50.794;6.060;2023-08-08T10:39:52;14.98;;;2.63;;
26718;SDS011;14326;50.794;6.060;2023-08-08T10:42:19;12.35;;;2.30;;
26718;SDS011;14326;50.794;6.060;2023-08-08T10:44:50;10.88;;;2.17;;
26718;SDS011;14326;50.794;6.060;2023-08-08T10:47:20;8.85;;;1.92;;
26718;SDS011;14326;50.794;6.060;2023-08-08T10:49:57;11.30;;;2.10;;
